Time;durP1;ratioP1;P1;durP2;ratioP2;P2;SDS_P1;SDS_P2;PMS_P1;PMS_P2;Temp;Humidity;BMP_temperature;BMP_pressure;BME280_temperature;BME280_humidity;BME280_pressure;Samples;Min_cycle;Max_cycle;Signal;HPM_P1;HPM_P2
2023/05/25 00:00:11;;;;;;;15.13;3.83;;;11.90;99.90;;;;;;4861950;29;39778;-81
2023/05/25 00:02:41;;;;;;;15.43;3.85;;;11.80;99.90;;;;;;4857357;29;35953;-82
2023/05/25 00:05:09;;;;;;;14.27;4.32;;;11.80;99.90;;;;;;4860039;29;40356;-82
2023/05/25 00:07:36;;;;;;;11.93;4.40;;;11.80;99.90;;;;;;4858494;29;38060;-81
2023/05/25 00:10:02;;;;;;;18.27;4.35;;;11.80;99.90;;;;;;4854563;29;37997;-81
2023/05/25 00:12:28;;;;;;;12.88;4.15;;;11.80;99.90;;;;;;4846528;29;35729;-81
2023/05/25 00:14:55;;;;;;;17.33;4.78;;;11.70;99.90;;;;;;4861121;29;37391;-81
2023/05/25 00:17:23;;;;;;;10.05;4.22;;;11.70;99.90;;;;;;4860532;29;40113;-81
2023/05/25 00:19:49;;;;;;;13.15;4.55;;;11.70;99.90;;;;;;4849000;29;37564;-81
2023/05/25 00:22:15;;;;;;;14.82;4.40;;;11.70;99.90;;;;;;4868234;29;35853;-81
2023/05/25 00:24:41;;;;;;;14.10;4.07;;;11.70;99.90;;;;;;4874395;29;38438;-81
2023/05/25 00:27:07;;;;;;;13.32;4.50;;;11.70;99.90;;;;;;4860702;29;38884;-81
2023/05/25 00:29:34;;;;;;;14.00;4.88;;;11.60;99.90;;;;;;4862041;29;37161;-81
2023/05/25 00:32:01;;;;;;;12.95;5.10;;;11.60;99.90;;;;;;4861779;29;35911;-81
2023/05/25 00:34:27;;;;;;;12.18;4.75;;;11.50;99.90;;;;;;4861941;29;48055;-81
2023/05/25 00:36:53;;;;;;;16.70;4.05;;;11.60;99.90;;;;;;4854574;29;38773;-81
2023/05/25 00:39:20;;;;;;;13.70;4.93;;;11.50;99.90;;;;;;4860478;29;37543;-81
2023/05/25 00:41:47;;;;;;;16.38;4.80;;;11.50;99.90;;;;;;4867392;29;38532;-80
2023/05/25 00:44:15;;;;;;;17.38;4.90;;;11.60;99.90;;;;;;4855982;29;37563;-81
2023/05/25 00:46:48;;;;;;;18.55;5.18;;;11.50;99.90;;;;;;4867674;29;37898;-81
2023/05/25 00:49:17;;;;;;;19.15;4.75;;;11.50;99.90;;;;;;4864412;29;38122;-81
2023/05/25 00:51:47;;;;;;;11.50;5.15;;;11.50;99.90;;;;;;4855023;29;37345;-81
2023/05/25 00:54:14;;;;;;;16.90;5.35;;;11.40;99.90;;;;;;4857162;29;37974;-80
2023/05/25 00:56:49;;;;;;;14.15;5.38;;;11.40;99.90;;;;;;4861696;29;39452;-81
2023/05/25 00:59:35;;;;;;;17.98;5.50;;;11.40;99.90;;;;;;4859486;29;38329;-81
2023/05/25 01:02:06;;;;;;;16.95;5.25;;;11.40;99.90;;;;;;5234599;23;36259;-80
2023/05/25 01:04:35;;;;;;;11.57;4.97;;;11.50;99.90;;;;;;4846570;29;36931;-83
2023/05/25 01:07:07;;;;;;;15.35;4.85;;;11.50;99.90;;;;;;4856269;29;38383;-82
2023/05/25 01:09:37;;;;;;;22.33;6.85;;;11.50;99.90;;;;;;4854778;29;47082;-82
2023/05/25 01:12:05;;;;;;;18.55;5.65;;;11.50;99.90;;;;;;4848582;29;38237;-80
2023/05/25 01:14:33;;;;;;;19.63;6.25;;;11.50;99.90;;;;;;4853529;29;38702;-79
2023/05/25 01:17:02;;;;;;;20.30;5.97;;;11.60;99.90;;;;;;4850631;29;38926;-79
2023/05/25 01:19:28;;;;;;;11.80;5.18;;;11.60;99.90;;;;;;4857427;29;48490;-82
2023/05/25 01:22:11;;;;;;;19.13;5.57;;;11.60;99.90;;;;;;4866437;29;38310;-82
2023/05/25 01:24:54;;;;;;;17.42;6.68;;;11.60;99.90;;;;;;4858995;29;47793;-81
2023/05/25 01:27:56;;;;;;;14.45;5.43;;;11.60;99.90;;;;;;4854682;29;37401;-80
2023/05/25 01:30:25;;;;;;;20.58;6.40;;;11.60;99.90;;;;;;4847988;29;38350;-80
2023/05/25 01:32:52;;;;;;;17.17;5.72;;;11.60;99.90;;;;;;4848682;29;37362;-83
2023/05/25 01:35:20;;;;;;;14.68;5.40;;;11.60;99.90;;;;;;4846159;29;37412;-84
2023/05/25 01:37:46;;;;;;;17.70;6.20;;;11.60;99.90;;;;;;4846601;29;39033;-81
2023/05/25 01:40:14;;;;;;;21.75;6.28;;;11.70;99.90;;;;;;4851389;29;38579;-84
2023/05/25 01:42:40;;;;;;;14.65;5.38;;;11.70;99.90;;;;;;4849334;29;36315;-81
2023/05/25 01:45:08;;;;;;;18.27;6.80;;;11.60;99.90;;;;;;4844003;29;38878;-81
2023/05/25 01:47:45;;;;;;;16.98;6.13;;;11.70;99.90;;;;;;4864694;29;37461;-82
2023/05/25 01:50:20;;;;;;;16.67;6.03;;;11.60;99.90;;;;;;4847616;29;37647;-81
2023/05/25 01:53:05;;;;;;;15.43;6.20;;;11.60;99.90;;;;;;4847933;29;35599;-81
2023/05/25 01:55:42;;;;;;;21.13;7.05;;;11.60;99.90;;;;;;4844683;29;46890;-80
2023/05/25 01:58:08;;;;;;;17.27;6.30;;;11.60;99.90;;;;;;4848122;29;38720;-81
2023/05/25 02:00:36;;;;;;;20.73;7.18;;;11.60;99.90;;;;;;4852274;29;39399;-81
2023/05/25 02:03:03;;;;;;;17.02;7.13;;;11.50;99.90;;;;;;4849774;29;37114;-81
2023/05/25 02:05:29;;;;;;;20.02;7.18;;;11.50;99.90;;;;;;4851174;29;37753;-80
2023/05/25 02:07:55;;;;;;;15.77;6.45;;;11.50;99.90;;;;;;4846668;29;38514;-80
2023/05/25 02:10:22;;;;;;;13.23;6.30;;;11.40;99.90;;;;;;4845594;29;37651;-82
2023/05/25 02:12:48;;;;;;;20.02;6.88;;;11.40;99.90;;;;;;4849351;29;36360;-82
2023/05/25 02:15:15;;;;;;;21.67;6.93;;;11.40;99.90;;;;;;4845737;29;37547;-79
2023/05/25 02:17:42;;;;;;;19.02;6.63;;;11.30;99.90;;;;;;4857317;29;38292;-81
2023/05/25 02:20:08;;;;;;;21.40;7.88;;;11.30;99.90;;;;;;4857322;29;38667;-80
2023/05/25 02:22:36;;;;;;;21.05;7.30;;;11.30;99.90;;;;;;4851659;29;35818;-84
2023/05/25 02:25:02;;;;;;;16.40;7.72;;;11.30;99.90;;;;;;4854481;29;39681;-82
2023/05/25 02:27:29;;;;;;;21.50;7.97;;;11.30;99.90;;;;;;4857506;29;38559;-80
2023/05/25 02:29:55;;;;;;;20.90;7.60;;;11.30;99.90;;;;;;4857575;29;38670;-81
2023/05/25 02:32:21;;;;;;;18.40;7.90;;;11.20;99.90;;;;;;4858244;29;36202;-81
2023/05/25 02:34:47;;;;;;;14.77;7.80;;;11.20;99.90;;;;;;4851244;29;39936;-79
2023/05/25 02:37:13;;;;;;;20.10;8.10;;;11.20;99.90;;;;;;4849896;29;38974;-80
2023/05/25 02:39:39;;;;;;;19.73;9.07;;;11.10;99.90;;;;;;4857412;29;37270;-80
2023/05/25 02:42:06;;;;;;;23.45;8.38;;;11.10;99.90;;;;;;4847373;29;36794;-80
2023/05/25 02:44:32;;;;;;;20.65;9.40;;;11.10;99.90;;;;;;4858279;29;40457;-80
2023/05/25 02:46:58;;;;;;;24.25;9.77;;;11.00;99.90;;;;;;4854740;29;39519;-79
2023/05/25 02:49:24;;;;;;;20.92;9.75;;;11.00;99.90;;;;;;4865220;29;38328;-81
2023/05/25 02:51:50;;;;;;;22.73;10.32;;;11.00;99.90;;;;;;4856098;29;36483;-80
2023/05/25 02:54:17;;;;;;;20.15;9.27;;;11.00;99.90;;;;;;4851609;29;39158;-81
2023/05/25 02:56:43;;;;;;;23.23;9.88;;;10.90;99.90;;;;;;4849093;29;39594;-79
2023/05/25 02:59:09;;;;;;;20.80;10.18;;;10.90;99.90;;;;;;4853024;29;38297;-80
2023/05/25 03:01:35;;;;;;;24.38;11.63;;;10.90;99.90;;;;;;4849245;29;36330;-80
2023/05/25 03:04:02;;;;;;;28.48;11.80;;;10.90;99.90;;;;;;4854293;29;38545;-78
2023/05/25 03:06:28;;;;;;;23.23;10.95;;;10.90;99.90;;;;;;4848460;29;39095;-80
2023/05/25 03:08:57;;;;;;;24.27;12.23;;;10.90;99.90;;;;;;4852592;29;39527;-80
2023/05/25 03:11:23;;;;;;;23.20;11.30;;;10.90;99.90;;;;;;4854523;29;35027;-80
2023/05/25 03:13:50;;;;;;;23.63;11.32;;;10.90;99.90;;;;;;4849741;29;39432;-80
2023/05/25 03:16:16;;;;;;;24.13;11.45;;;10.90;99.90;;;;;;4848829;29;37804;-79
2023/05/25 03:18:43;;;;;;;28.42;12.40;;;10.90;99.90;;;;;;4848186;29;37735;-79
2023/05/25 03:21:09;;;;;;;21.58;12.23;;;10.80;99.90;;;;;;4850371;29;36332;-80
2023/05/25 03:23:35;;;;;;;20.38;11.65;;;10.80;99.90;;;;;;4849079;29;37670;-80
2023/05/25 03:26:01;;;;;;;21.83;11.95;;;10.80;99.90;;;;;;4862801;29;37648;-79
2023/05/25 03:28:27;;;;;;;25.00;12.07;;;10.80;99.90;;;;;;4868762;29;47302;-80
2023/05/25 03:30:53;;;;;;;27.42;12.18;;;10.70;99.90;;;;;;4850009;29;37439;-79
2023/05/25 03:33:19;;;;;;;26.80;12.93;;;10.70;99.90;;;;;;4847297;29;39049;-79
2023/05/25 03:35:45;;;;;;;22.40;12.60;;;10.70;99.90;;;;;;4851942;29;39689;-78
2023/05/25 03:38:12;;;;;;;26.98;12.63;;;10.70;99.90;;;;;;4849909;29;37552;-80
2023/05/25 03:40:38;;;;;;;21.65;11.82;;;10.70;99.90;;;;;;4856958;29;38207;-80
2023/05/25 03:43:07;;;;;;;23.88;11.80;;;10.70;99.90;;;;;;4850854;29;37901;-79
2023/05/25 03:45:33;;;;;;;22.60;12.50;;;10.70;99.90;;;;;;4852246;29;38977;-80
2023/05/25 03:47:59;;;;;;;22.98;12.02;;;10.70;99.90;;;;;;4849178;29;37497;-79
2023/05/25 03:50:25;;;;;;;21.50;11.75;;;10.60;99.90;;;;;;4854908;29;38100;-79
2023/05/25 03:52:51;;;;;;;25.98;11.80;;;10.60;99.90;;;;;;4849099;29;39550;-79
2023/05/25 03:55:18;;;;;;;25.42;12.70;;;10.50;99.90;;;;;;4852727;29;38073;-81
2023/05/25 03:57:44;;;;;;;24.42;11.57;;;10.50;99.90;;;;;;4856404;29;38346;-79
2023/05/25 04:00:11;;;;;;;17.13;10.68;;;10.50;99.90;;;;;;4853921;29;38594;-80
2023/05/25 04:02:37;;;;;;;23.35;10.40;;;10.60;99.90;;;;;;4855106;29;39882;-79
2023/05/25 04:05:03;;;;;;;21.45;10.45;;;10.50;99.90;;;;;;4855718;29;38026;-80
2023/05/25 04:07:29;;;;;;;23.20;10.63;;;10.50;99.90;;;;;;4844089;29;37274;-78
2023/05/25 04:09:58;;;;;;;20.13;10.45;;;10.50;99.90;;;;;;4855044;29;36599;-80
2023/05/25 04:12:25;;;;;;;14.98;8.65;;;10.50;99.90;;;;;;4858175;29;37649;-77
2023/05/25 04:14:51;;;;;;;20.48;9.77;;;10.50;99.90;;;;;;4858520;29;37784;-79
2023/05/25 04:17:20;;;;;;;14.70;8.20;;;10.50;99.90;;;;;;4856695;29;38530;-78
2023/05/25 04:19:46;;;;;;;24.38;10.18;;;10.50;99.90;;;;;;4860121;29;36027;-79
2023/05/25 04:22:13;;;;;;;21.88;10.02;;;10.50;99.90;;;;;;4860086;29;38796;-79
2023/05/25 04:24:39;;;;;;;20.52;10.70;;;10.50;99.90;;;;;;4856507;29;39044;-80
2023/05/25 04:27:06;;;;;;;18.15;9.65;;;10.60;99.90;;;;;;4857768;29;38782;-78
2023/05/25 04:29:32;;;;;;;20.08;9.60;;;10.60;99.90;;;;;;4873697;29;36595;-79
2023/05/25 04:31:58;;;;;;;17.33;9.38;;;10.60;99.90;;;;;;4857786;29;37803;-78
2023/05/25 04:34:28;;;;;;;16.92;8.68;;;10.70;99.90;;;;;;4865188;29;40044;-79
2023/05/25 04:36:57;;;;;;;16.92;8.93;;;10.70;99.90;;;;;;4857942;29;38058;-78
2023/05/25 04:39:23;;;;;;;16.17;9.25;;;10.70;99.90;;;;;;4868080;29;37031;-77
2023/05/25 04:41:51;;;;;;;19.08;8.80;;;10.80;99.90;;;;;;4853624;29;39601;-78
2023/05/25 04:44:18;;;;;;;17.15;8.95;;;10.80;99.90;;;;;;4871880;29;37568;-78
2023/05/25 04:46:44;;;;;;;16.55;9.90;;;10.80;99.90;;;;;;4865024;29;39219;-78
2023/05/25 04:49:12;;;;;;;25.02;10.95;;;10.90;99.90;;;;;;4867781;29;36231;-77
2023/05/25 04:51:38;;;;;;;17.48;9.80;;;11.00;99.90;;;;;;4858650;29;38596;-76
2023/05/25 04:54:04;;;;;;;21.88;10.35;;;11.10;99.90;;;;;;4862134;29;39948;-77
2023/05/25 04:56:30;;;;;;;20.15;10.00;;;11.10;99.90;;;;;;4852294;29;39014;-78
2023/05/25 04:58:56;;;;;;;18.67;8.95;;;11.20;99.90;;;;;;4850915;29;36904;-78
2023/05/25 05:01:23;;;;;;;19.10;8.63;;;11.20;99.90;;;;;;4851360;29;37588;-78
2023/05/25 05:03:49;;;;;;;16.88;6.65;;;11.20;99.90;;;;;;4857272;29;37760;-78
2023/05/25 05:06:15;;;;;;;14.93;5.88;;;11.20;99.90;;;;;;4859176;29;38446;-80
2023/05/25 05:08:42;;;;;;;13.57;5.55;;;11.30;99.90;;;;;;4851483;29;38148;-76
2023/05/25 05:11:08;;;;;;;13.55;6.25;;;11.40;99.90;;;;;;4849504;29;38656;-77
2023/05/25 05:13:34;;;;;;;16.70;6.25;;;11.60;99.90;;;;;;4851602;29;35952;-76
2023/05/25 05:16:00;;;;;;;13.05;5.43;;;11.70;99.90;;;;;;4854430;29;39312;-76
2023/05/25 05:18:27;;;;;;;13.88;5.50;;;12.10;99.90;;;;;;4858317;29;47654;-77
2023/05/25 05:20:53;;;;;;;13.02;5.75;;;12.40;99.90;;;;;;4862201;29;38530;-79
2023/05/25 05:23:20;;;;;;;12.07;5.30;;;12.80;99.90;;;;;;4852027;29;38776;-78
2023/05/25 05:25:46;;;;;;;16.15;5.68;;;13.10;99.90;;;;;;4855265;29;36616;-77
2023/05/25 05:28:12;;;;;;;12.38;7.15;;;13.30;99.90;;;;;;4853251;29;36116;-78
2023/05/25 05:30:38;;;;;;;14.88;6.15;;;13.40;99.90;;;;;;4850925;29;37662;-79
2023/05/25 05:33:05;;;;;;;14.82;6.47;;;13.60;99.90;;;;;;4875908;29;38164;-81
2023/05/25 05:35:31;;;;;;;10.27;5.22;;;13.80;99.90;;;;;;4864424;29;39969;-78
2023/05/25 05:37:57;;;;;;;11.52;6.38;;;13.90;99.90;;;;;;4856193;29;36591;-79
2023/05/25 05:40:24;;;;;;;20.05;6.20;;;14.10;99.90;;;;;;4850638;29;37248;-80
2023/05/25 05:42:51;;;;;;;8.98;3.95;;;14.20;99.90;;;;;;4846946;29;39324;-79
2023/05/25 05:45:17;;;;;;;8.95;4.00;;;14.20;99.90;;;;;;4863477;29;37514;-80
2023/05/25 05:47:43;;;;;;;10.15;3.90;;;14.30;99.90;;;;;;4874163;29;37429;-79
2023/05/25 05:50:09;;;;;;;10.32;4.05;;;14.30;99.90;;;;;;4854694;29;38735;-79
2023/05/25 05:52:35;;;;;;;11.75;4.20;;;14.50;99.90;;;;;;4859791;29;38091;-78
2023/05/25 05:55:01;;;;;;;11.50;4.30;;;14.30;99.90;;;;;;4855779;29;37785;-82
2023/05/25 05:57:28;;;;;;;10.48;4.53;;;14.50;99.90;;;;;;4852669;29;37056;-80
2023/05/25 05:59:54;;;;;;;9.63;3.75;;;14.60;99.90;;;;;;4850673;29;39822;-80
2023/05/25 06:02:20;;;;;;;13.35;4.40;;;14.60;99.90;;;;;;4853375;29;37717;-85
2023/05/25 06:04:46;;;;;;;9.98;4.25;;;14.70;99.90;;;;;;4857567;29;37624;-80
2023/05/25 06:07:12;;;;;;;12.57;3.70;;;14.70;99.90;;;;;;4845633;29;36435;-80
2023/05/25 06:09:38;;;;;;;8.68;3.55;;;14.70;99.90;;;;;;4852077;29;38684;-78
2023/05/25 06:12:05;;;;;;;9.18;3.45;;;14.80;99.90;;;;;;4853403;29;37633;-82
2023/05/25 06:14:31;;;;;;;6.45;3.30;;;14.80;99.90;;;;;;4853342;29;37486;-77
2023/05/25 06:16:57;;;;;;;10.23;3.65;;;15.00;99.90;;;;;;4864963;29;37230;-77
2023/05/25 06:19:23;;;;;;;10.27;4.25;;;15.20;99.90;;;;;;4867849;29;38395;-77
2023/05/25 06:21:50;;;;;;;7.93;3.50;;;15.30;99.90;;;;;;4851018;29;40437;-79
2023/05/25 06:24:16;;;;;;;11.13;3.60;;;15.40;99.90;;;;;;4862582;29;37435;-79
2023/05/25 06:26:42;;;;;;;10.70;3.50;;;15.60;99.90;;;;;;4854642;29;38010;-78
2023/05/25 06:29:08;;;;;;;10.00;3.80;;;15.80;99.90;;;;;;4854489;29;37657;-78
2023/05/25 06:31:35;;;;;;;9.35;3.78;;;16.00;99.90;;;;;;4871727;29;37503;-79
2023/05/25 06:34:01;;;;;;;6.45;3.50;;;16.10;99.90;;;;;;4850645;29;38285;-76
2023/05/25 06:36:27;;;;;;;8.70;3.28;;;16.40;99.90;;;;;;4849199;29;47141;-76
2023/05/25 06:38:53;;;;;;;7.93;3.50;;;16.50;99.90;;;;;;4851970;29;37697;-80
2023/05/25 06:41:19;;;;;;;7.68;2.85;;;16.20;99.90;;;;;;4855396;29;39171;-80
2023/05/25 06:43:45;;;;;;;6.40;2.92;;;15.80;99.90;;;;;;4875641;29;37367;-79
2023/05/25 06:46:16;;;;;;;6.45;3.55;;;15.80;99.90;;;;;;4852393;29;37900;-79
2023/05/25 06:48:43;;;;;;;7.82;2.92;;;15.80;99.90;;;;;;4850590;29;37750;-81
2023/05/25 06:51:09;;;;;;;10.00;2.97;;;15.90;99.90;;;;;;4853796;29;38606;-79
2023/05/25 06:53:37;;;;;;;8.10;3.20;;;15.80;99.90;;;;;;4879036;29;37528;-79
2023/05/25 06:56:04;;;;;;;7.18;3.08;;;15.80;99.90;;;;;;4865547;29;37936;-80
2023/05/25 06:58:31;;;;;;;5.70;2.63;;;15.90;99.90;;;;;;4864429;29;38640;-83
2023/05/25 07:00:59;;;;;;;6.95;2.78;;;16.10;99.90;;;;;;4849539;29;38285;-78
2023/05/25 07:03:25;;;;;;;8.65;3.35;;;15.50;99.90;;;;;;4857813;29;38003;-79
2023/05/25 07:05:52;;;;;;;6.13;2.90;;;15.30;99.90;;;;;;4848181;29;20046;-80
2023/05/25 07:08:19;;;;;;;8.10;3.22;;;15.30;99.90;;;;;;4847995;29;37791;-79
2023/05/25 07:10:45;;;;;;;7.00;2.85;;;15.20;99.90;;;;;;4851455;29;38541;-83
2023/05/25 07:13:11;;;;;;;6.18;2.55;;;15.60;99.90;;;;;;4850467;29;37592;-81
2023/05/25 07:15:37;;;;;;;7.20;2.50;;;15.90;99.90;;;;;;4851608;29;37488;-81
2023/05/25 07:18:03;;;;;;;8.35;2.60;;;16.10;99.90;;;;;;4862542;29;38848;-79
2023/05/25 07:20:30;;;;;;;6.57;2.88;;;16.10;99.90;;;;;;4853361;29;37714;-79
2023/05/25 07:22:56;;;;;;;5.80;2.60;;;15.90;99.90;;;;;;4851650;29;37508;-79
2023/05/25 07:25:22;;;;;;;5.10;2.05;;;16.20;99.90;;;;;;4851710;29;36443;-79
2023/05/25 07:27:49;;;;;;;6.43;2.42;;;16.40;99.90;;;;;;4848822;29;38755;-80
2023/05/25 07:30:15;;;;;;;5.35;2.35;;;16.80;99.90;;;;;;4859810;29;38927;-79
2023/05/25 07:32:41;;;;;;;7.72;2.78;;;17.00;99.90;;;;;;4852938;29;38546;-79
2023/05/25 07:35:07;;;;;;;4.97;2.58;;;17.40;99.90;;;;;;4847803;29;37138;-80
2023/05/25 07:37:34;;;;;;;5.70;2.20;;;17.70;99.90;;;;;;4848406;29;37847;-79
2023/05/25 07:40:00;;;;;;;4.18;1.95;;;17.50;99.90;;;;;;4853321;29;39434;-79
2023/05/25 07:42:32;;;;;;;4.75;2.30;;;17.50;99.90;;;;;;4852934;29;37950;-78
2023/05/25 07:44:59;;;;;;;6.55;2.30;;;17.10;99.90;;;;;;4856720;29;37104;-80
2023/05/25 07:47:26;;;;;;;5.95;2.42;;;17.10;99.90;;;;;;4844619;29;38775;-80
2023/05/25 07:49:53;;;;;;;5.22;2.03;;;16.50;99.90;;;;;;4858998;29;39567;-81
2023/05/25 07:52:19;;;;;;;5.15;2.33;;;15.90;99.90;;;;;;4846931;29;37339;-79
2023/05/25 07:54:45;;;;;;;4.45;2.15;;;15.90;99.90;;;;;;4850013;29;36158;-82
2023/05/25 07:57:11;;;;;;;5.40;1.80;;;15.80;99.90;;;;;;4849005;29;37853;-78
2023/05/25 07:59:37;;;;;;;5.28;2.40;;;15.50;99.90;;;;;;4850312;29;40502;-79
2023/05/25 08:02:03;;;;;;;9.27;2.53;;;15.40;99.90;;;;;;4848747;29;35419;-77
2023/05/25 08:04:30;;;;;;;8.45;2.58;;;15.40;99.90;;;;;;4840629;29;39130;-83
2023/05/25 08:06:56;;;;;;;5.55;2.75;;;15.30;99.90;;;;;;4843778;29;39051;-80
2023/05/25 08:09:22;;;;;;;5.32;2.22;;;15.30;99.90;;;;;;4839648;29;39859;-81
2023/05/25 08:11:48;;;;;;;7.25;2.60;;;15.40;99.90;;;;;;4841032;29;37405;-81
2023/05/25 08:14:15;;;;;;;7.28;2.63;;;15.40;99.90;;;;;;4848569;29;37464;-77
2023/05/25 08:16:41;;;;;;;5.35;2.40;;;15.30;99.90;;;;;;4849377;29;37693;-77
2023/05/25 08:19:07;;;;;;;8.13;2.85;;;15.20;99.90;;;;;;4847758;29;38853;-77
2023/05/25 08:21:35;;;;;;;7.78;2.88;;;15.10;99.90;;;;;;4851570;29;37200;-77
2023/05/25 08:24:03;;;;;;;6.32;3.08;;;15.30;99.90;;;;;;4863800;29;35885;-76
2023/05/25 08:26:29;;;;;;;5.35;3.00;;;15.40;99.90;;;;;;4850096;29;37489;-77
2023/05/25 08:28:56;;;;;;;5.57;2.47;;;15.50;99.90;;;;;;4849642;29;39748;-82
2023/05/25 08:31:22;;;;;;;8.45;2.88;;;15.60;99.90;;;;;;4847529;29;36156;-76
2023/05/25 08:33:48;;;;;;;4.18;2.38;;;15.80;99.90;;;;;;4849358;29;37236;-81
2023/05/25 08:36:14;;;;;;;5.07;2.88;;;16.10;99.90;;;;;;4842243;29;37849;-79
2023/05/25 08:38:40;;;;;;;6.10;2.80;;;16.30;99.90;;;;;;4848836;29;38991;-81
2023/05/25 08:41:07;;;;;;;5.68;2.35;;;16.40;99.90;;;;;;4846699;29;38594;-79
2023/05/25 08:43:34;;;;;;;6.03;2.65;;;16.60;99.90;;;;;;4867565;29;36136;-78
2023/05/25 08:46:05;;;;;;;7.60;3.15;;;16.80;99.90;;;;;;4848096;29;39353;-80
2023/05/25 08:48:37;;;;;;;8.18;2.58;;;16.90;99.90;;;;;;4859538;29;47401;-78
2023/05/25 08:51:08;;;;;;;5.97;2.50;;;16.40;99.90;;;;;;4869128;29;37433;-78
2023/05/25 08:53:36;;;;;;;8.30;3.13;;;16.30;99.90;;;;;;4855918;29;37475;-80
2023/05/25 08:56:21;;;;;;;8.70;2.70;;;16.00;99.90;;;;;;4848615;29;39033;-78
2023/05/25 08:58:55;;;;;;;8.23;2.78;;;16.00;99.90;;;;;;4858794;29;39143;-79
2023/05/25 09:01:26;;;;;;;8.60;2.85;;;16.20;99.90;;;;;;4850427;29;39426;-80
2023/05/25 09:03:54;;;;;;;8.20;3.75;;;16.20;99.90;;;;;;4859931;29;36119;-80
2023/05/25 09:06:23;;;;;;;7.32;2.78;;;16.30;99.90;;;;;;4850794;29;38034;-80
2023/05/25 09:08:49;;;;;;;10.73;3.63;;;16.60;99.90;;;;;;4857619;29;37698;-79
2023/05/25 09:11:16;;;;;;;6.45;2.70;;;16.70;99.90;;;;;;4857454;29;38833;-80
2023/05/25 09:13:42;;;;;;;7.95;2.88;;;16.90;99.90;;;;;;4860935;29;36413;-80
2023/05/25 09:16:08;;;;;;;7.63;3.00;;;17.20;99.90;;;;;;4873340;29;38657;-79
2023/05/25 09:18:34;;;;;;;7.72;2.95;;;17.10;99.90;;;;;;4853044;29;38666;-79
2023/05/25 09:21:01;;;;;;;4.22;2.20;;;16.90;99.90;;;;;;4853992;29;37568;-79
2023/05/25 09:23:27;;;;;;;6.32;3.03;;;16.90;99.90;;;;;;4856575;29;48938;-78
2023/05/25 09:25:54;;;;;;;12.68;3.20;;;16.80;99.90;;;;;;4848338;29;38049;-80
2023/05/25 09:28:20;;;;;;;7.35;2.83;;;16.60;99.90;;;;;;4856123;29;40914;-78
2023/05/25 09:30:46;;;;;;;7.05;2.80;;;16.50;99.90;;;;;;4852022;29;38933;-77
2023/05/25 09:33:16;;;;;;;9.57;2.83;;;16.50;99.90;;;;;;4857375;29;36882;-79
2023/05/25 09:35:44;;;;;;;5.30;2.70;;;16.60;99.90;;;;;;4846890;29;37639;-79
2023/05/25 09:38:14;;;;;;;6.65;2.40;;;16.70;99.90;;;;;;4856799;29;37963;-80
2023/05/25 09:40:40;;;;;;;5.80;2.35;;;16.80;99.90;;;;;;4858700;29;38542;-81
2023/05/25 09:43:06;;;;;;;11.80;3.03;;;17.00;99.90;;;;;;4848268;29;36029;-78
2023/05/25 09:45:32;;;;;;;7.68;3.15;;;17.00;99.90;;;;;;4852742;29;38977;-80
2023/05/25 09:47:58;;;;;;;7.43;3.10;;;17.00;99.90;;;;;;4861824;29;39217;-79
2023/05/25 09:50:28;;;;;;;7.60;3.08;;;16.80;99.90;;;;;;4851274;29;39512;-80
2023/05/25 09:52:59;;;;;;;7.93;3.53;;;16.90;99.90;;;;;;4851741;29;37959;-81
2023/05/25 09:55:27;;;;;;;8.40;3.10;;;16.80;99.90;;;;;;4840992;29;39153;-79
2023/05/25 09:57:55;;;;;;;8.55;3.05;;;16.60;99.90;;;;;;4872535;29;39047;-79
2023/05/25 10:00:24;;;;;;;6.88;3.22;;;16.60;99.90;;;;;;4846843;29;38182;-79
2023/05/25 10:02:51;;;;;;;10.13;3.45;;;16.40;99.90;;;;;;4851500;29;37025;-79
2023/05/25 10:05:17;;;;;;;8.60;3.45;;;16.30;99.90;;;;;;4849608;29;37735;-79
2023/05/25 10:07:45;;;;;;;8.45;3.35;;;16.40;99.90;;;;;;4858294;29;37988;-80
2023/05/25 10:10:15;;;;;;;6.30;3.30;;;16.40;99.90;;;;;;4844948;29;37865;-81
2023/05/25 10:12:43;;;;;;;10.57;3.38;;;16.40;99.90;;;;;;4855736;29;38383;-78
2023/05/25 10:15:12;;;;;;;9.80;3.22;;;16.50;99.90;;;;;;4858090;29;38055;-79
2023/05/25 10:17:59;;;;;;;7.30;3.30;;;16.70;99.90;;;;;;4864678;29;39785;-78
2023/05/25 10:20:25;;;;;;;6.40;2.22;;;17.20;99.90;;;;;;4847990;29;37538;-78
2023/05/25 10:23:05;;;;;;;7.53;3.17;;;17.40;99.90;;;;;;4849053;29;36211;-78
2023/05/25 10:25:46;;;;;;;7.32;2.65;;;17.50;99.90;;;;;;4842575;29;48293;-77
2023/05/25 10:28:15;;;;;;;7.55;2.90;;;17.50;99.90;;;;;;4860065;29;38688;-80
2023/05/25 10:30:42;;;;;;;7.05;2.80;;;17.50;99.90;;;;;;4865003;29;38183;-83
2023/05/25 10:33:09;;;;;;;10.35;2.92;;;17.80;99.90;;;;;;4841796;29;35889;-83
2023/05/25 10:35:38;;;;;;;5.85;2.53;;;17.70;99.90;;;;;;4845199;29;39799;-77
2023/05/25 10:38:05;;;;;;;5.15;2.70;;;17.60;99.90;;;;;;4848100;29;39044;-85
2023/05/25 10:40:33;;;;;;;7.22;2.58;;;17.60;99.90;;;;;;4846374;29;37595;-81
2023/05/25 10:43:00;;;;;;;7.53;2.88;;;17.70;99.90;;;;;;4845678;29;37465;-84
2023/05/25 10:45:27;;;;;;;6.50;2.95;;;17.60;99.90;;;;;;4847174;29;37795;-84
2023/05/25 10:47:53;;;;;;;8.68;2.92;;;17.50;99.90;;;;;;4851493;29;38252;-81
2023/05/25 10:50:27;;;;;;;8.85;3.22;;;17.50;99.90;;;;;;4847165;29;39993;-81
2023/05/25 10:53:00;;;;;;;8.77;3.03;;;18.20;99.90;;;;;;4855391;29;37420;-80
2023/05/25 10:55:46;;;;;;;6.97;2.83;;;18.60;99.90;;;;;;4848498;29;39840;-78
2023/05/25 10:58:16;;;;;;;5.80;2.53;;;18.80;99.90;;;;;;4833000;29;37714;-78
2023/05/25 11:00:42;;;;;;;7.72;2.70;;;18.60;99.90;;;;;;4849184;29;37544;-78
2023/05/25 11:03:09;;;;;;;9.73;3.15;;;18.30;99.90;;;;;;4847364;29;37120;-80
2023/05/25 11:05:37;;;;;;;7.03;2.92;;;18.30;99.90;;;;;;4851843;29;38719;-81
2023/05/25 11:08:05;;;;;;;4.25;2.42;;;18.00;99.90;;;;;;4846420;29;37998;-78
2023/05/25 11:10:46;;;;;;;6.50;2.70;;;17.70;99.90;;;;;;4849285;29;37527;-78
2023/05/25 11:13:36;;;;;;;7.65;2.60;;;17.70;99.90;;;;;;4853354;29;37295;-79
2023/05/25 11:16:18;;;;;;;9.15;2.90;;;17.80;99.90;;;;;;4851512;29;37591;-80
2023/05/25 11:18:48;;;;;;;7.05;2.60;;;17.90;99.90;;;;;;4852122;29;38098;-77
2023/05/25 11:21:17;;;;;;;12.32;3.10;;;17.80;99.90;;;;;;4850385;29;37635;-79
2023/05/25 11:23:53;;;;;;;6.68;2.67;;;17.90;99.90;;;;;;4849660;29;37114;-78
2023/05/25 11:26:27;;;;;;;8.07;2.78;;;18.10;99.90;;;;;;4847543;29;39240;-82
2023/05/25 11:28:54;;;;;;;6.75;2.88;;;18.20;99.90;;;;;;4853276;29;38043;-79
2023/05/25 11:31:29;;;;;;;4.20;2.25;;;18.20;99.90;;;;;;4854432;29;37621;-80
2023/05/25 11:33:57;;;;;;;10.23;3.03;;;18.40;99.90;;;;;;4862116;29;36360;-79
2023/05/25 11:36:24;;;;;;;7.13;2.92;;;18.60;99.90;;;;;;4868121;29;39095;-79
2023/05/25 11:38:51;;;;;;;7.00;2.70;;;19.10;99.90;;;;;;4863039;29;38889;-79
2023/05/25 11:41:23;;;;;;;7.78;2.33;;;19.30;99.90;;;;;;4862964;29;37493;-78
2023/05/25 11:43:50;;;;;;;9.63;2.47;;;19.40;99.90;;;;;;4857740;29;36121;-78
2023/05/25 11:46:20;;;;;;;12.90;2.97;;;19.30;99.90;;;;;;4851741;29;38035;-78
2023/05/25 11:48:51;;;;;;;11.38;3.13;;;19.20;99.90;;;;;;4860158;29;39750;-79
2023/05/25 11:51:22;;;;;;;6.70;3.20;;;19.00;99.90;;;;;;4861889;29;37828;-79
2023/05/25 11:53:48;;;;;;;7.60;2.70;;;19.00;99.90;;;;;;4861321;29;38307;-80
2023/05/25 11:56:16;;;;;;;10.55;3.08;;;19.40;99.90;;;;;;4827172;29;39097;-81
2023/05/25 11:58:48;;;;;;;7.10;2.92;;;19.60;99.90;;;;;;4867905;29;38057;-80
2023/05/25 12:01:19;;;;;;;11.05;3.63;;;19.30;99.90;;;;;;4855192;29;39092;-79
2023/05/25 12:03:47;;;;;;;6.57;3.00;;;19.10;99.90;;;;;;4842886;29;36114;-78
2023/05/25 12:06:27;;;;;;;6.75;3.17;;;19.10;99.90;;;;;;4857294;29;37981;-80
2023/05/25 12:08:55;;;;;;;8.32;3.03;;;19.00;99.90;;;;;;4843097;29;39678;-79
2023/05/25 12:11:33;;;;;;;6.93;3.33;;;18.90;99.90;;;;;;4853846;29;37846;-80
2023/05/25 12:14:02;;;;;;;8.20;3.38;;;18.60;99.90;;;;;;4848713;29;37510;-78
2023/05/25 12:16:29;;;;;;;11.10;3.38;;;18.70;99.90;;;;;;4862841;29;48414;-80
2023/05/25 12:18:56;;;;;;;9.98;3.28;;;18.80;99.90;;;;;;4862252;29;37767;-78
2023/05/25 12:21:23;;;;;;;7.93;3.25;;;18.60;99.90;;;;;;4860045;29;38014;-80
2023/05/25 12:23:49;;;;;;;8.23;3.50;;;18.50;99.90;;;;;;4874771;29;37467;-81
2023/05/25 12:26:17;;;;;;;9.43;3.65;;;18.20;99.90;;;;;;4857784;29;37462;-78
2023/05/25 12:29:05;;;;;;;10.70;3.17;;;18.00;99.90;;;;;;4856843;29;38095;-81
2023/05/25 12:31:33;;;;;;;7.75;3.28;;;17.90;99.90;;;;;;4870654;29;47210;-79
2023/05/25 12:34:09;;;;;;;7.32;3.17;;;18.00;99.90;;;;;;4864828;29;36025;-80
2023/05/25 12:36:39;;;;;;;9.80;3.08;;;18.20;99.90;;;;;;4864694;29;47117;-80
2023/05/25 12:39:06;;;;;;;7.30;3.40;;;18.40;99.90;;;;;;4852550;29;38632;-79
2023/05/25 12:41:42;;;;;;;9.57;3.58;;;18.30;99.90;;;;;;4847788;29;38204;-81
2023/05/25 12:44:26;;;;;;;8.45;3.42;;;18.30;99.90;;;;;;4842382;29;35997;-78